sensor_id;sensor_type;location;lat;lon;timestamp;temperature;humidity
10300;DHT22;5195;48.562;9.192;2022-12-18T00:01:29;-5.50;45.20
10300;DHT22;5195;48.562;9.192;2022-12-18T00:04:05;-5.70;45.70
10300;DHT22;5195;48.562;9.192;2022-12-18T00:06:40;-5.80;46.00
10300;DHT22;5195;48.562;9.192;2022-12-18T00:09:18;-5.40;44.90
10300;DHT22;5195;48.562;9.192;2022-12-18T00:11:53;-5.40;44.80
10300;DHT22;5195;48.562;9.192;2022-12-18T00:14:29;-5.10;43.70
10300;DHT22;5195;48.562;9.192;2022-12-18T00:17:05;-4.70;42.00
10300;DHT22;5195;48.562;9.192;2022-12-18T00:19:41;-4.70;41.90
10300;DHT22;5195;48.562;9.192;2022-12-18T00:22:16;-4.90;42.10
10300;DHT22;5195;48.562;9.192;2022-12-18T00:24:52;-5.20;42.80
10300;DHT22;5195;48.562;9.192;2022-12-18T00:27:28;-5.40;43.50
10300;DHT22;5195;48.562;9.192;2022-12-18T00:30:05;-5.50;43.50
10300;DHT22;5195;48.562;9.192;2022-12-18T00:32:40;-5.50;43.50
10300;DHT22;5195;48.562;9.192;2022-12-18T00:35:16;-5.50;43.10
10300;DHT22;5195;48.562;9.192;2022-12-18T00:37:52;-5.20;41.60
10300;DHT22;5195;48.562;9.192;2022-12-18T00:40:28;-5.20;41.60
10300;DHT22;5195;48.562;9.192;2022-12-18T00:43:05;-5.10;41.20
10300;DHT22;5195;48.562;9.192;2022-12-18T00:45:40;-5.20;41.60
10300;DHT22;5195;48.562;9.192;2022-12-18T00:48:16;-5.50;42.20
10300;DHT22;5195;48.562;9.192;2022-12-18T00:50:51;-5.60;42.60
10300;DHT22;5195;48.562;9.192;2022-12-18T00:53:27;-5.40;42.20
10300;DHT22;5195;48.562;9.192;2022-12-18T00:56:03;-5.40;42.30
10300;DHT22;5195;48.562;9.192;2022-12-18T00:58:38;-5.70;42.60
10300;DHT22;5195;48.562;9.192;2022-12-18T01:01:14;-5.70;42.50
10300;DHT22;5195;48.562;9.192;2022-12-18T01:03:49;-5.80;42.50
10300;DHT22;5195;48.562;9.192;2022-12-18T01:06:26;-5.90;43.40
10300;DHT22;5195;48.562;9.192;2022-12-18T01:09:02;-6.00;43.30
10300;DHT22;5195;48.562;9.192;2022-12-18T01:11:39;-5.90;43.30
10300;DHT22;5195;48.562;9.192;2022-12-18T01:14:14;-5.90;42.60
10300;DHT22;5195;48.562;9.192;2022-12-18T01:16:50;-5.70;41.60
10300;DHT22;5195;48.562;9.192;2022-12-18T01:19:27;-5.70;41.70
10300;DHT22;5195;48.562;9.192;2022-12-18T01:22:02;-5.70;41.90
10300;DHT22;5195;48.562;9.192;2022-12-18T01:24:38;-5.70;42.30
10300;DHT22;5195;48.562;9.192;2022-12-18T01:27:13;-5.70;42.60
10300;DHT22;5195;48.562;9.192;2022-12-18T01:29:49;-5.70;42.70
10300;DHT22;5195;48.562;9.192;2022-12-18T01:32:25;-5.90;43.10
10300;DHT22;5195;48.562;9.192;2022-12-18T01:35:01;-5.90;43.00
10300;DHT22;5195;48.562;9.192;2022-12-18T01:37:36;-5.90;43.10
10300;DHT22;5195;48.562;9.192;2022-12-18T01:40:12;-6.00;43.40
10300;DHT22;5195;48.562;9.192;2022-12-18T01:42:51;-6.00;43.20
10300;DHT22;5195;48.562;9.192;2022-12-18T01:45:28;-6.10;43.50
10300;DHT22;5195;48.562;9.192;2022-12-18T01:48:03;-6.10;43.50
10300;DHT22;5195;48.562;9.192;2022-12-18T01:50:41;-6.30;44.50
10300;DHT22;5195;48.562;9.192;2022-12-18T01:53:21;-6.40;44.40
10300;DHT22;5195;48.562;9.192;2022-12-18T01:55:56;-6.30;44.40
10300;DHT22;5195;48.562;9.192;2022-12-18T01:59:04;-6.30;44.40
10300;DHT22;5195;48.562;9.192;2022-12-18T02:01:39;-6.40;44.60
10300;DHT22;5195;48.562;9.192;2022-12-18T02:04:23;-6.50;45.00
10300;DHT22;5195;48.562;9.192;2022-12-18T02:07:00;-6.40;45.40
10300;DHT22;5195;48.562;9.192;2022-12-18T02:09:48;-6.10;43.70
10300;DHT22;5195;48.562;9.192;2022-12-18T02:17:57;-6.20;43.80
10300;DHT22;5195;48.562;9.192;2022-12-18T02:20:34;-5.90;42.80
10300;DHT22;5195;48.562;9.192;2022-12-18T02:26:27;-5.90;42.80
10300;DHT22;5195;48.562;9.192;2022-12-18T02:29:08;-6.00;42.90
10300;DHT22;5195;48.562;9.192;2022-12-18T02:31:49;-6.20;43.40
10300;DHT22;5195;48.562;9.192;2022-12-18T02:34:24;-6.40;43.90
10300;DHT22;5195;48.562;9.192;2022-12-18T02:36:59;-6.30;43.90
10300;DHT22;5195;48.562;9.192;2022-12-18T02:39:34;-6.10;43.00
10300;DHT22;5195;48.562;9.192;2022-12-18T02:42:09;-6.10;42.80
10300;DHT22;5195;48.562;9.192;2022-12-18T02:44:46;-6.20;43.30
10300;DHT22;5195;48.562;9.192;2022-12-18T02:47:22;-6.20;43.30
10300;DHT22;5195;48.562;9.192;2022-12-18T02:50:13;-6.00;42.50
10300;DHT22;5195;48.562;9.192;2022-12-18T02:53:06;-6.10;42.30
10300;DHT22;5195;48.562;9.192;2022-12-18T02:56:13;-6.50;43.50
10300;DHT22;5195;48.562;9.192;2022-12-18T02:58:52;-6.50;43.50
10300;DHT22;5195;48.562;9.192;2022-12-18T03:01:47;-6.40;43.60
10300;DHT22;5195;48.562;9.192;2022-12-18T03:04:39;-6.30;43.60
10300;DHT22;5195;48.562;9.192;2022-12-18T03:07:33;-6.10;43.60
10300;DHT22;5195;48.562;9.192;2022-12-18T03:09:56;-6.20;43.40
10300;DHT22;5195;48.562;9.192;2022-12-18T03:12:35;-6.30;43.80
10300;DHT22;5195;48.562;9.192;2022-12-18T03:15:17;-6.50;44.20
10300;DHT22;5195;48.562;9.192;2022-12-18T03:17:59;-6.40;44.30
10300;DHT22;5195;48.562;9.192;2022-12-18T03:20:33;-6.10;43.30
10300;DHT22;5195;48.562;9.192;2022-12-18T03:23:12;-6.10;43.00
10300;DHT22;5195;48.562;9.192;2022-12-18T03:25:47;-6.20;43.50
10300;DHT22;5195;48.562;9.192;2022-12-18T03:28:24;-6.00;43.30
10300;DHT22;5195;48.562;9.192;2022-12-18T03:31:01;-6.00;42.70
10300;DHT22;5195;48.562;9.192;2022-12-18T03:36:16;-6.00;42.80
10300;DHT22;5195;48.562;9.192;2022-12-18T03:38:53;-6.00;42.70
10300;DHT22;5195;48.562;9.192;2022-12-18T03:41:31;-5.80;42.90
10300;DHT22;5195;48.562;9.192;2022-12-18T03:44:10;-5.80;42.20
10300;DHT22;5195;48.562;9.192;2022-12-18T03:47:08;-5.60;41.80
10300;DHT22;5195;48.562;9.192;2022-12-18T03:49:57;-5.70;41.80
10300;DHT22;5195;48.562;9.192;2022-12-18T03:55:09;-6.30;43.10
10300;DHT22;5195;48.562;9.192;2022-12-18T03:57:45;-6.30;43.60
10300;DHT22;5195;48.562;9.192;2022-12-18T04:00:21;-6.00;42.70
10300;DHT22;5195;48.562;9.192;2022-12-18T04:02:57;-6.00;42.40
10300;DHT22;5195;48.562;9.192;2022-12-18T04:05:33;-6.20;42.80
10300;DHT22;5195;48.562;9.192;2022-12-18T04:08:09;-6.40;43.30
10300;DHT22;5195;48.562;9.192;2022-12-18T04:10:45;-6.60;43.90
10300;DHT22;5195;48.562;9.192;2022-12-18T04:13:32;-6.70;44.30
10300;DHT22;5195;48.562;9.192;2022-12-18T04:16:05;-6.70;44.50
10300;DHT22;5195;48.562;9.192;2022-12-18T04:18:42;-6.60;44.40
10300;DHT22;5195;48.562;9.192;2022-12-18T04:21:17;-6.70;44.40
10300;DHT22;5195;48.562;9.192;2022-12-18T04:23:53;-6.90;44.70
10300;DHT22;5195;48.562;9.192;2022-12-18T04:26:28;-6.80;45.00
10300;DHT22;5195;48.562;9.192;2022-12-18T04:29:04;-6.40;44.60
10300;DHT22;5195;48.562;9.192;2022-12-18T04:31:41;-6.10;43.20
10300;DHT22;5195;48.562;9.192;2022-12-18T04:34:17;-5.90;42.40
10300;DHT22;5195;48.562;9.192;2022-12-18T04:36:53;-6.10;42.70
10300;DHT22;5195;48.562;9.192;2022-12-18T04:39:29;-6.10;42.10
10300;DHT22;5195;48.562;9.192;2022-12-18T04:42:04;-5.90;41.90
10300;DHT22;5195;48.562;9.192;2022-12-18T04:44:40;-5.80;41.40
10300;DHT22;5195;48.562;9.192;2022-12-18T04:47:16;-5.60;41.00
10300;DHT22;5195;48.562;9.192;2022-12-18T04:49:51;-5.80;41.20
10300;DHT22;5195;48.562;9.192;2022-12-18T04:52:28;-6.20;42.30
10300;DHT22;5195;48.562;9.192;2022-12-18T04:55:03;-6.20;42.30
10300;DHT22;5195;48.562;9.192;2022-12-18T04:57:39;-6.00;42.30
10300;DHT22;5195;48.562;9.192;2022-12-18T05:00:15;-5.80;41.50
10300;DHT22;5195;48.562;9.192;2022-12-18T05:02:51;-5.60;40.70
10300;DHT22;5195;48.562;9.192;2022-12-18T05:05:27;-5.70;40.60
10300;DHT22;5195;48.562;9.192;2022-12-18T05:08:02;-5.80;41.00
10300;DHT22;5195;48.562;9.192;2022-12-18T05:10:39;-6.20;42.10
10300;DHT22;5195;48.562;9.192;2022-12-18T05:13:15;-6.20;42.10
10300;DHT22;5195;48.562;9.192;2022-12-18T05:15:51;-6.10;42.00
10300;DHT22;5195;48.562;9.192;2022-12-18T05:18:27;-6.20;42.10
10300;DHT22;5195;48.562;9.192;2022-12-18T05:21:02;-6.20;42.10
10300;DHT22;5195;48.562;9.192;2022-12-18T05:23:38;-6.10;41.70
10300;DHT22;5195;48.562;9.192;2022-12-18T05:26:15;-5.90;41.50
10300;DHT22;5195;48.562;9.192;2022-12-18T05:28:49;-5.70;41.40
10300;DHT22;5195;48.562;9.192;2022-12-18T05:31:25;-5.60;41.10
10300;DHT22;5195;48.562;9.192;2022-12-18T05:34:01;-5.60;40.20
10300;DHT22;5195;48.562;9.192;2022-12-18T05:36:37;-5.60;40.10
10300;DHT22;5195;48.562;9.192;2022-12-18T05:39:13;-5.60;39.80
10300;DHT22;5195;48.562;9.192;2022-12-18T05:41:49;-5.60;39.80
10300;DHT22;5195;48.562;9.192;2022-12-18T05:44:24;-5.50;39.90
10300;DHT22;5195;48.562;9.192;2022-12-18T05:47:00;-5.70;40.80
10300;DHT22;5195;48.562;9.192;2022-12-18T05:49:36;-5.90;40.40
10300;DHT22;5195;48.562;9.192;2022-12-18T05:52:11;-5.80;40.00
10300;DHT22;5195;48.562;9.192;2022-12-18T05:54:47;-5.70;39.40
10300;DHT22;5195;48.562;9.192;2022-12-18T05:57:22;-5.90;39.30
10300;DHT22;5195;48.562;9.192;2022-12-18T05:59:58;-6.30;39.90
10300;DHT22;5195;48.562;9.192;2022-12-18T06:02:34;-6.60;40.70
10300;DHT22;5195;48.562;9.192;2022-12-18T06:05:09;-6.80;41.30
10300;DHT22;5195;48.562;9.192;2022-12-18T06:07:45;-6.80;41.80
10300;DHT22;5195;48.562;9.192;2022-12-18T06:10:21;-6.70;42.20
10300;DHT22;5195;48.562;9.192;2022-12-18T06:12:57;-6.80;41.60
10300;DHT22;5195;48.562;9.192;2022-12-18T06:15:35;-6.60;42.00
10300;DHT22;5195;48.562;9.192;2022-12-18T06:18:09;-6.70;41.90
10300;DHT22;5195;48.562;9.192;2022-12-18T06:20:51;-6.20;41.40
10300;DHT22;5195;48.562;9.192;2022-12-18T06:23:21;-6.20;40.70
10300;DHT22;5195;48.562;9.192;2022-12-18T06:26:19;-6.00;39.90
10300;DHT22;5195;48.562;9.192;2022-12-18T06:28:55;-5.90;38.90
10300;DHT22;5195;48.562;9.192;2022-12-18T06:31:30;-5.80;38.90
10300;DHT22;5195;48.562;9.192;2022-12-18T06:34:06;-5.80;38.30
10300;DHT22;5195;48.562;9.192;2022-12-18T06:36:42;-5.80;38.00
10300;DHT22;5195;48.562;9.192;2022-12-18T06:39:18;-5.80;38.00
10300;DHT22;5195;48.562;9.192;2022-12-18T06:41:53;-5.80;38.50
10300;DHT22;5195;48.562;9.192;2022-12-18T06:44:31;-6.30;39.90
10300;DHT22;5195;48.562;9.192;2022-12-18T06:47:06;-6.30;39.80
10300;DHT22;5195;48.562;9.192;2022-12-18T06:49:42;-6.50;39.80
10300;DHT22;5195;48.562;9.192;2022-12-18T06:52:18;-6.60;40.50
10300;DHT22;5195;48.562;9.192;2022-12-18T06:54:54;-6.60;40.10
10300;DHT22;5195;48.562;9.192;2022-12-18T06:57:30;-6.40;39.60
10300;DHT22;5195;48.562;9.192;2022-12-18T07:00:06;-6.50;39.80
10300;DHT22;5195;48.562;9.192;2022-12-18T07:02:41;-6.70;40.30
10300;DHT22;5195;48.562;9.192;2022-12-18T07:05:16;-6.80;40.70
10300;DHT22;5195;48.562;9.192;2022-12-18T07:07:52;-6.60;39.80
10300;DHT22;5195;48.562;9.192;2022-12-18T07:10:28;-6.50;39.10
10300;DHT22;5195;48.562;9.192;2022-12-18T07:13:03;-6.60;39.70
10300;DHT22;5195;48.562;9.192;2022-12-18T07:15:39;-6.90;39.90
10300;DHT22;5195;48.562;9.192;2022-12-18T07:18:14;-7.10;40.80
10300;DHT22;5195;48.562;9.192;2022-12-18T07:20:51;-7.00;41.00
10300;DHT22;5195;48.562;9.192;2022-12-18T07:23:26;-7.00;41.00
10300;DHT22;5195;48.562;9.192;2022-12-18T07:26:10;-6.70;40.60
10300;DHT22;5195;48.562;9.192;2022-12-18T07:28:44;-6.80;40.60
10300;DHT22;5195;48.562;9.192;2022-12-18T07:31:20;-6.80;40.70
10300;DHT22;5195;48.562;9.192;2022-12-18T07:33:55;-6.90;40.70
10300;DHT22;5195;48.562;9.192;2022-12-18T07:36:31;-7.00;41.30
10300;DHT22;5195;48.562;9.192;2022-12-18T07:39:07;-7.20;42.10
10300;DHT22;5195;48.562;9.192;2022-12-18T07:41:43;-7.20;42.20
10300;DHT22;5195;48.562;9.192;2022-12-18T07:44:18;-7.10;42.10
10300;DHT22;5195;48.562;9.192;2022-12-18T07:46:55;-7.20;42.40
10300;DHT22;5195;48.562;9.192;2022-12-18T07:49:31;-7.20;42.20
10300;DHT22;5195;48.562;9.192;2022-12-18T07:52:06;-6.90;41.40
10300;DHT22;5195;48.562;9.192;2022-12-18T07:54:42;-6.80;41.20
10300;DHT22;5195;48.562;9.192;2022-12-18T07:57:18;-7.00;41.90
10300;DHT22;5195;48.562;9.192;2022-12-18T07:59:54;-7.00;41.90
10300;DHT22;5195;48.562;9.192;2022-12-18T08:02:33;-6.60;41.20
10300;DHT22;5195;48.562;9.192;2022-12-18T08:05:09;-6.30;40.70
10300;DHT22;5195;48.562;9.192;2022-12-18T08:07:45;-6.40;40.60
10300;DHT22;5195;48.562;9.192;2022-12-18T08:10:20;-6.50;41.30
10300;DHT22;5195;48.562;9.192;2022-12-18T08:12:56;-6.60;42.10
10300;DHT22;5195;48.562;9.192;2022-12-18T08:15:32;-6.50;42.20
10300;DHT22;5195;48.562;9.192;2022-12-18T08:18:08;-5.60;40.90
10300;DHT22;5195;48.562;9.192;2022-12-18T08:20:43;-5.70;40.80
10300;DHT22;5195;48.562;9.192;2022-12-18T08:23:19;-5.50;40.90
10300;DHT22;5195;48.562;9.192;2022-12-18T08:25:55;-5.60;41.50
10300;DHT22;5195;48.562;9.192;2022-12-18T08:28:31;-5.50;42.50
10300;DHT22;5195;48.562;9.192;2022-12-18T08:31:08;-5.50;42.50
10300;DHT22;5195;48.562;9.192;2022-12-18T08:33:43;-5.30;42.80
10300;DHT22;5195;48.562;9.192;2022-12-18T08:36:19;-5.10;41.30
10300;DHT22;5195;48.562;9.192;2022-12-18T08:38:56;-4.80;40.60
10300;DHT22;5195;48.562;9.192;2022-12-18T08:41:31;-4.90;40.50
10300;DHT22;5195;48.562;9.192;2022-12-18T08:44:07;-4.60;39.30
10300;DHT22;5195;48.562;9.192;2022-12-18T08:47:02;-4.60;39.50
10300;DHT22;5195;48.562;9.192;2022-12-18T08:49:38;-4.50;39.80
10300;DHT22;5195;48.562;9.192;2022-12-18T08:52:14;-4.50;39.80
10300;DHT22;5195;48.562;9.192;2022-12-18T08:54:49;-4.60;40.50
10300;DHT22;5195;48.562;9.192;2022-12-18T08:57:25;-4.80;41.20
10300;DHT22;5195;48.562;9.192;2022-12-18T09:00:00;-4.90;41.90
10300;DHT22;5195;48.562;9.192;2022-12-18T09:02:36;-4.80;41.60
10300;DHT22;5195;48.562;9.192;2022-12-18T09:05:12;-4.40;40.80
10300;DHT22;5195;48.562;9.192;2022-12-18T09:07:47;-4.20;42.00
10300;DHT22;5195;48.562;9.192;2022-12-18T09:10:24;-3.20;42.50
10300;DHT22;5195;48.562;9.192;2022-12-18T09:12:59;-3.30;42.40
10300;DHT22;5195;48.562;9.192;2022-12-18T09:15:39;-3.10;41.70
10300;DHT22;5195;48.562;9.192;2022-12-18T09:18:11;-3.30;42.80
10300;DHT22;5195;48.562;9.192;2022-12-18T09:20:47;-3.30;42.40
10300;DHT22;5195;48.562;9.192;2022-12-18T09:23:22;-3.20;42.50
10300;DHT22;5195;48.562;9.192;2022-12-18T09:25:59;-2.80;41.40
10300;DHT22;5195;48.562;9.192;2022-12-18T09:28:34;-2.90;41.20
10300;DHT22;5195;48.562;9.192;2022-12-18T09:31:10;-2.50;40.00
10300;DHT22;5195;48.562;9.192;2022-12-18T09:33:46;-1.90;38.90
10300;DHT22;5195;48.562;9.192;2022-12-18T09:36:23;-1.90;38.90
10300;DHT22;5195;48.562;9.192;2022-12-18T09:38:59;-2.10;40.10
10300;DHT22;5195;48.562;9.192;2022-12-18T09:41:55;-2.10;40.10
10300;DHT22;5195;48.562;9.192;2022-12-18T09:44:36;-2.40;41.40
10300;DHT22;5195;48.562;9.192;2022-12-18T09:47:11;-2.40;41.40
10300;DHT22;5195;48.562;9.192;2022-12-18T09:49:45;-2.20;41.40
10300;DHT22;5195;48.562;9.192;2022-12-18T09:52:29;-1.80;41.50
10300;DHT22;5195;48.562;9.192;2022-12-18T09:55:22;-1.40;40.50
10300;DHT22;5195;48.562;9.192;2022-12-18T09:57:47;-1.20;40.60
10300;DHT22;5195;48.562;9.192;2022-12-18T10:00:22;-1.20;40.60
10300;DHT22;5195;48.562;9.192;2022-12-18T10:03:09;-0.80;40.90
10300;DHT22;5195;48.562;9.192;2022-12-18T10:08:46;-0.30;39.80
10300;DHT22;5195;48.562;9.192;2022-12-18T10:20:05;0.00;40.70
10300;DHT22;5195;48.562;9.192;2022-12-18T10:22:53;0.20;40.40
10300;DHT22;5195;48.562;9.192;2022-12-18T10:25:31;0.20;40.40
10300;DHT22;5195;48.562;9.192;2022-12-18T10:28:10;0.40;40.80
10300;DHT22;5195;48.562;9.192;2022-12-18T10:30:43;0.50;40.30
10300;DHT22;5195;48.562;9.192;2022-12-18T10:33:19;0.60;39.90
10300;DHT22;5195;48.562;9.192;2022-12-18T10:35:54;0.70;39.70
10300;DHT22;5195;48.562;9.192;2022-12-18T10:38:30;0.50;40.00
10300;DHT22;5195;48.562;9.192;2022-12-18T10:41:06;0.50;40.30
10300;DHT22;5195;48.562;9.192;2022-12-18T10:43:41;0.40;40.80
10300;DHT22;5195;48.562;9.192;2022-12-18T10:46:17;0.20;41.20
10300;DHT22;5195;48.562;9.192;2022-12-18T10:48:55;0.20;41.70
10300;DHT22;5195;48.562;9.192;2022-12-18T10:51:34;0.40;41.30
10300;DHT22;5195;48.562;9.192;2022-12-18T10:54:16;0.70;41.00
10300;DHT22;5195;48.562;9.192;2022-12-18T10:56:52;0.60;41.30
10300;DHT22;5195;48.562;9.192;2022-12-18T10:59:27;0.60;41.30
10300;DHT22;5195;48.562;9.192;2022-12-18T11:02:07;0.60;41.50
10300;DHT22;5195;48.562;9.192;2022-12-18T11:04:40;0.50;42.10
10300;DHT22;5195;48.562;9.192;2022-12-18T11:07:15;0.50;41.80
10300;DHT22;5195;48.562;9.192;2022-12-18T11:10:00;0.50;42.00
10300;DHT22;5195;48.562;9.192;2022-12-18T11:12:26;0.40;42.40
10300;DHT22;5195;48.562;9.192;2022-12-18T11:15:02;0.40;43.20
10300;DHT22;5195;48.562;9.192;2022-12-18T11:17:38;0.40;43.20
10300;DHT22;5195;48.562;9.192;2022-12-18T11:20:30;0.60;43.50
10300;DHT22;5195;48.562;9.192;2022-12-18T11:22:56;0.80;43.10
10300;DHT22;5195;48.562;9.192;2022-12-18T11:25:31;0.90;43.00
10300;DHT22;5195;48.562;9.192;2022-12-18T11:31:12;1.30;41.80
10300;DHT22;5195;48.562;9.192;2022-12-18T11:36:42;1.60;41.40
10300;DHT22;5195;48.562;9.192;2022-12-18T11:39:37;1.60;41.20
10300;DHT22;5195;48.562;9.192;2022-12-18T11:42:24;1.80;40.80
10300;DHT22;5195;48.562;9.192;2022-12-18T11:44:58;2.00;40.60
10300;DHT22;5195;48.562;9.192;2022-12-18T11:47:40;1.90;41.20
10300;DHT22;5195;48.562;9.192;2022-12-18T11:50:44;1.60;41.80
10300;DHT22;5195;48.562;9.192;2022-12-18T11:52:53;1.40;42.40
10300;DHT22;5195;48.562;9.192;2022-12-18T12:12:37;1.70;42.40
10300;DHT22;5195;48.562;9.192;2022-12-18T12:15:13;1.40;43.10
10300;DHT22;5195;48.562;9.192;2022-12-18T12:21:07;0.90;44.10
10300;DHT22;5195;48.562;9.192;2022-12-18T12:40:39;0.90;45.70
10300;DHT22;5195;48.562;9.192;2022-12-18T12:43:20;0.90;45.50
10300;DHT22;5195;48.562;9.192;2022-12-18T12:46:06;0.80;45.80
10300;DHT22;5195;48.562;9.192;2022-12-18T12:48:45;0.90;46.20
10300;DHT22;5195;48.562;9.192;2022-12-18T12:51:21;1.50;44.80
10300;DHT22;5195;48.562;9.192;2022-12-18T12:53:56;1.60;44.90
10300;DHT22;5195;48.562;9.192;2022-12-18T12:59:37;1.70;44.00
10300;DHT22;5195;48.562;9.192;2022-12-18T13:02:21;1.40;44.40
10300;DHT22;5195;48.562;9.192;2022-12-18T13:10:33;1.30;44.20
10300;DHT22;5195;48.562;9.192;2022-12-18T13:15:43;1.10;44.80
10300;DHT22;5195;48.562;9.192;2022-12-18T13:18:19;0.90;45.20
10300;DHT22;5195;48.562;9.192;2022-12-18T13:23:32;0.90;45.60
10300;DHT22;5195;48.562;9.192;2022-12-18T13:34:23;1.10;45.10
10300;DHT22;5195;48.562;9.192;2022-12-18T13:46:02;0.90;45.50
10300;DHT22;5195;48.562;9.192;2022-12-18T13:48:37;1.20;46.10
10300;DHT22;5195;48.562;9.192;2022-12-18T13:51:13;1.20;46.10
10300;DHT22;5195;48.562;9.192;2022-12-18T13:53:53;1.20;46.00
10300;DHT22;5195;48.562;9.192;2022-12-18T13:56:28;1.20;46.20
10300;DHT22;5195;48.562;9.192;2022-12-18T14:01:53;0.80;46.30
10300;DHT22;5195;48.562;9.192;2022-12-18T14:04:28;0.60;46.90
10300;DHT22;5195;48.562;9.192;2022-12-18T14:07:20;0.70;47.70
10300;DHT22;5195;48.562;9.192;2022-12-18T14:09:58;0.80;47.60
10300;DHT22;5195;48.562;9.192;2022-12-18T14:12:33;1.00;47.60
10300;DHT22;5195;48.562;9.192;2022-12-18T14:15:38;1.30;47.30
10300;DHT22;5195;48.562;9.192;2022-12-18T14:18:18;1.30;46.90
10300;DHT22;5195;48.562;9.192;2022-12-18T14:20:58;1.00;47.10
10300;DHT22;5195;48.562;9.192;2022-12-18T14:23:39;0.70;47.90
10300;DHT22;5195;48.562;9.192;2022-12-18T14:26:25;0.60;47.80
10300;DHT22;5195;48.562;9.192;2022-12-18T14:29:00;0.80;47.70
10300;DHT22;5195;48.562;9.192;2022-12-18T14:31:34;1.20;46.90
10300;DHT22;5195;48.562;9.192;2022-12-18T14:34:17;1.40;46.60
10300;DHT22;5195;48.562;9.192;2022-12-18T14:36:52;1.70;46.00
10300;DHT22;5195;48.562;9.192;2022-12-18T14:39:28;1.80;45.70
10300;DHT22;5195;48.562;9.192;2022-12-18T14:42:04;1.60;46.30
10300;DHT22;5195;48.562;9.192;2022-12-18T14:44:39;1.20;46.10
10300;DHT22;5195;48.562;9.192;2022-12-18T14:47:15;1.20;46.50
10300;DHT22;5195;48.562;9.192;2022-12-18T14:49:52;1.40;46.20
10300;DHT22;5195;48.562;9.192;2022-12-18T14:52:27;1.60;45.60
10300;DHT22;5195;48.562;9.192;2022-12-18T14:55:04;1.40;45.50
10300;DHT22;5195;48.562;9.192;2022-12-18T14:57:42;1.40;45.50
10300;DHT22;5195;48.562;9.192;2022-12-18T15:00:18;1.40;45.50
10300;DHT22;5195;48.562;9.192;2022-12-18T15:02:54;1.70;45.00
10300;DHT22;5195;48.562;9.192;2022-12-18T15:05:31;1.70;44.90
10300;DHT22;5195;48.562;9.192;2022-12-18T15:08:24;1.80;44.40
10300;DHT22;5195;48.562;9.192;2022-12-18T15:10:46;1.80;43.70
10300;DHT22;5195;48.562;9.192;2022-12-18T15:13:21;1.80;43.70
10300;DHT22;5195;48.562;9.192;2022-12-18T15:15:57;1.80;43.60
10300;DHT22;5195;48.562;9.192;2022-12-18T15:18:32;1.50;43.90
10300;DHT22;5195;48.562;9.192;2022-12-18T15:21:09;0.60;45.10
10300;DHT22;5195;48.562;9.192;2022-12-18T15:26:21;0.30;45.60
10300;DHT22;5195;48.562;9.192;2022-12-18T15:28:57;0.00;46.10
10300;DHT22;5195;48.562;9.192;2022-12-18T15:31:32;-0.20;46.50
10300;DHT22;5195;48.562;9.192;2022-12-18T15:36:44;-0.50;47.50
10300;DHT22;5195;48.562;9.192;2022-12-18T15:39:19;-0.50;47.40
10300;DHT22;5195;48.562;9.192;2022-12-18T15:41:55;-0.30;47.80
10300;DHT22;5195;48.562;9.192;2022-12-18T15:44:50;0.20;47.40
10300;DHT22;5195;48.562;9.192;2022-12-18T15:47:26;0.50;46.30
10300;DHT22;5195;48.562;9.192;2022-12-18T15:50:02;0.80;45.70
10300;DHT22;5195;48.562;9.192;2022-12-18T15:52:44;0.70;45.60
10300;DHT22;5195;48.562;9.192;2022-12-18T15:55:20;0.40;46.00
10300;DHT22;5195;48.562;9.192;2022-12-18T15:58:15;0.40;46.50
10300;DHT22;5195;48.562;9.192;2022-12-18T16:00:50;0.80;45.90
10300;DHT22;5195;48.562;9.192;2022-12-18T16:03:26;1.00;45.60
10300;DHT22;5195;48.562;9.192;2022-12-18T16:06:01;1.20;44.90
10300;DHT22;5195;48.562;9.192;2022-12-18T16:08:37;1.00;44.80
10300;DHT22;5195;48.562;9.192;2022-12-18T16:11:20;1.00;45.20
10300;DHT22;5195;48.562;9.192;2022-12-18T16:13:52;0.80;45.40
10300;DHT22;5195;48.562;9.192;2022-12-18T16:16:28;0.80;44.70
10300;DHT22;5195;48.562;9.192;2022-12-18T16:19:04;1.00;44.40
10300;DHT22;5195;48.562;9.192;2022-12-18T16:21:39;1.10;43.60
10300;DHT22;5195;48.562;9.192;2022-12-18T16:24:16;1.10;43.30
10300;DHT22;5195;48.562;9.192;2022-12-18T16:26:52;1.10;43.30
10300;DHT22;5195;48.562;9.192;2022-12-18T16:29:28;1.20;43.40
10300;DHT22;5195;48.562;9.192;2022-12-18T16:32:02;1.20;43.20
10300;DHT22;5195;48.562;9.192;2022-12-18T16:34:38;0.90;43.50
10300;DHT22;5195;48.562;9.192;2022-12-18T16:37:14;0.70;43.70
10300;DHT22;5195;48.562;9.192;2022-12-18T16:39:49;0.50;43.90
10300;DHT22;5195;48.562;9.192;2022-12-18T16:42:25;0.50;44.60
10300;DHT22;5195;48.562;9.192;2022-12-18T16:45:01;0.50;44.60
10300;DHT22;5195;48.562;9.192;2022-12-18T16:47:38;0.50;45.30
10300;DHT22;5195;48.562;9.192;2022-12-18T16:50:13;0.50;44.60
10300;DHT22;5195;48.562;9.192;2022-12-18T16:52:49;0.60;45.50
10300;DHT22;5195;48.562;9.192;2022-12-18T16:55:25;0.60;45.30
10300;DHT22;5195;48.562;9.192;2022-12-18T16:58:00;0.50;45.40
10300;DHT22;5195;48.562;9.192;2022-12-18T17:00:37;0.30;45.90
10300;DHT22;5195;48.562;9.192;2022-12-18T17:03:13;0.30;46.30
10300;DHT22;5195;48.562;9.192;2022-12-18T17:05:49;0.60;46.00
10300;DHT22;5195;48.562;9.192;2022-12-18T17:08:24;0.60;45.80
10300;DHT22;5195;48.562;9.192;2022-12-18T17:11:05;0.60;45.90
10300;DHT22;5195;48.562;9.192;2022-12-18T17:13:40;0.90;45.70
10300;DHT22;5195;48.562;9.192;2022-12-18T17:16:15;1.10;45.30
10300;DHT22;5195;48.562;9.192;2022-12-18T17:18:51;1.00;45.30
10300;DHT22;5195;48.562;9.192;2022-12-18T17:21:27;0.70;45.70
10300;DHT22;5195;48.562;9.192;2022-12-18T17:24:03;0.60;45.80
10300;DHT22;5195;48.562;9.192;2022-12-18T17:26:39;0.60;45.80
10300;DHT22;5195;48.562;9.192;2022-12-18T17:29:16;0.40;46.10
10300;DHT22;5195;48.562;9.192;2022-12-18T17:31:50;0.50;46.20
10300;DHT22;5195;48.562;9.192;2022-12-18T17:34:26;0.80;45.60
10300;DHT22;5195;48.562;9.192;2022-12-18T17:37:02;0.80;45.70
10300;DHT22;5195;48.562;9.192;2022-12-18T17:39:38;0.80;45.60
10300;DHT22;5195;48.562;9.192;2022-12-18T17:42:14;0.80;46.20
10300;DHT22;5195;48.562;9.192;2022-12-18T17:44:50;1.00;45.10
10300;DHT22;5195;48.562;9.192;2022-12-18T17:47:26;1.00;45.10
10300;DHT22;5195;48.562;9.192;2022-12-18T17:50:02;1.20;44.70
10300;DHT22;5195;48.562;9.192;2022-12-18T17:52:38;1.10;44.80
10300;DHT22;5195;48.562;9.192;2022-12-18T17:55:13;1.00;44.80
10300;DHT22;5195;48.562;9.192;2022-12-18T17:57:50;0.50;45.40
10300;DHT22;5195;48.562;9.192;2022-12-18T18:00:25;0.50;45.40
10300;DHT22;5195;48.562;9.192;2022-12-18T18:03:02;0.50;45.80
10300;DHT22;5195;48.562;9.192;2022-12-18T18:05:38;0.80;45.30
10300;DHT22;5195;48.562;9.192;2022-12-18T18:08:14;0.70;45.90
10300;DHT22;5195;48.562;9.192;2022-12-18T18:10:51;0.70;45.90
10300;DHT22;5195;48.562;9.192;2022-12-18T18:13:27;0.80;45.80
10300;DHT22;5195;48.562;9.192;2022-12-18T18:16:23;0.80;45.50
10300;DHT22;5195;48.562;9.192;2022-12-18T18:18:59;0.80;45.60
10300;DHT22;5195;48.562;9.192;2022-12-18T18:21:36;1.00;45.50
10300;DHT22;5195;48.562;9.192;2022-12-18T18:24:10;0.80;45.40
10300;DHT22;5195;48.562;9.192;2022-12-18T18:26:45;0.50;45.80
10300;DHT22;5195;48.562;9.192;2022-12-18T18:29:22;0.40;46.70
10300;DHT22;5195;48.562;9.192;2022-12-18T18:31:57;0.30;46.60
10300;DHT22;5195;48.562;9.192;2022-12-18T18:34:33;0.70;46.30
10300;DHT22;5195;48.562;9.192;2022-12-18T18:37:09;0.90;45.80
10300;DHT22;5195;48.562;9.192;2022-12-18T18:43:21;1.40;45.30
10300;DHT22;5195;48.562;9.192;2022-12-18T18:45:59;1.40;45.30
10300;DHT22;5195;48.562;9.192;2022-12-18T18:48:35;1.20;45.40